createdAt,value
2018-12-19T00:01:06.352Z,27.42
2018-12-19T00:03:35.222Z,27.93
2018-12-19T00:06:16.310Z,27.58
2018-12-19T00:08:45.177Z,29.07
2018-12-19T00:11:26.245Z,25.52
2018-12-19T00:13:57.033Z,27.90
2018-12-19T00:16:38.094Z,29.02
2018-12-19T00:19:07.187Z,28.25
2018-12-19T00:21:48.185Z,28.65
2018-12-19T00:24:17.109Z,27.82
2018-12-19T00:26:58.114Z,28.00
2018-12-19T00:29:27.074Z,28.45
2018-12-19T00:32:08.078Z,26.60
2018-12-19T00:34:36.939Z,27.37
2018-12-19T00:37:17.949Z,27.48
2018-12-19T00:39:46.988Z,29.48
2018-12-19T00:42:28.129Z,27.67
2018-12-19T00:44:57.105Z,29.07
2018-12-19T00:47:38.115Z,28.42
2018-12-19T00:50:07.715Z,28.67
2018-12-19T00:52:48.712Z,28.70
2018-12-19T00:55:17.580Z,29.95
2018-12-19T00:57:58.715Z,29.07
2018-12-19T01:00:30.955Z,30.45
2018-12-19T01:03:11.987Z,30.70
2018-12-19T01:05:41.041Z,29.25
2018-12-19T01:08:22.064Z,30.20
2018-12-19T01:10:51.129Z,28.52
2018-12-19T01:13:32.241Z,28.55
2018-12-19T01:16:01.109Z,29.32
2018-12-19T01:18:42.129Z,28.67
2018-12-19T01:21:11.301Z,29.85
2018-12-19T01:23:53.063Z,29.63
2018-12-19T01:26:22.113Z,28.65
2018-12-19T01:29:03.125Z,27.98
2018-12-19T01:31:32.002Z,29.07
2018-12-19T01:34:13.002Z,29.07
2018-12-19T01:36:43.774Z,29.82
2018-12-19T01:39:24.793Z,32.67
2018-12-19T01:41:53.653Z,29.65
2018-12-19T01:44:34.706Z,28.83
2018-12-19T01:47:03.810Z,28.67
2018-12-19T01:49:44.830Z,29.65
2018-12-19T01:52:14.609Z,28.92
2018-12-19T01:54:55.655Z,28.80
2018-12-19T01:57:24.564Z,29.32
2018-12-19T02:00:05.921Z,28.55
2018-12-19T02:02:35.362Z,28.00
2018-12-19T02:05:16.409Z,27.17
2018-12-19T02:07:45.287Z,28.62
2018-12-19T02:10:26.301Z,28.98
2018-12-19T02:12:55.673Z,28.75
2018-12-19T02:15:36.782Z,30.32
2018-12-19T02:18:05.678Z,30.85
2018-12-19T02:20:46.682Z,29.75
2018-12-19T02:23:15.528Z,29.85
2018-12-19T02:25:56.583Z,29.63
2018-12-19T02:28:25.546Z,27.90
2018-12-19T02:31:06.594Z,28.95
2018-12-19T02:33:35.533Z,30.17
2018-12-19T02:36:16.634Z,26.45
2018-12-19T02:38:45.482Z,28.38
2018-12-19T02:41:26.482Z,29.70
2018-12-19T02:43:55.485Z,31.15
2018-12-19T02:46:36.574Z,32.03
2018-12-19T02:49:05.445Z,30.30
2018-12-19T02:51:46.448Z,29.42
2018-12-19T02:54:15.297Z,30.40
2018-12-19T02:56:56.308Z,30.00
2018-12-19T02:59:28.249Z,29.72
2018-12-19T03:02:09.270Z,29.60
2018-12-19T03:04:38.254Z,31.45
2018-12-19T03:07:19.269Z,30.30
2018-12-19T03:09:48.160Z,30.60
2018-12-19T03:12:29.250Z,28.60
2018-12-19T03:14:58.105Z,30.12
2018-12-19T03:17:39.149Z,29.45
2018-12-19T03:20:08.150Z,26.97
2018-12-19T03:22:49.181Z,27.87
2018-12-19T03:25:18.061Z,28.95
2018-12-19T03:27:59.060Z,28.38
2018-12-19T03:30:28.041Z,25.92
2018-12-19T03:33:09.091Z,28.25
2018-12-19T03:35:39.857Z,26.70
2018-12-19T03:38:24.139Z,27.27
2018-12-19T03:40:53.428Z,26.57
2018-12-19T03:43:34.426Z,25.32
2018-12-19T03:46:03.922Z,28.17
2018-12-19T03:48:50.579Z,27.58
2018-12-19T03:51:19.646Z,25.62
2018-12-19T03:54:00.675Z,24.82
2018-12-19T03:56:29.571Z,24.40
2018-12-19T03:59:15.762Z,25.30
2018-12-19T04:01:45.734Z,24.25
2018-12-19T04:04:26.768Z,23.73
2018-12-19T04:06:55.622Z,23.52
2018-12-19T04:09:36.661Z,22.50
2018-12-19T04:12:05.522Z,21.68
2018-12-19T04:14:46.574Z,22.07
2018-12-19T04:17:15.705Z,21.25
2018-12-19T04:19:56.711Z,21.55
2018-12-19T04:22:25.556Z,23.20
2018-12-19T04:25:06.646Z,24.70
2018-12-19T04:27:36.104Z,23.10
2018-12-19T04:30:17.154Z,23.22
2018-12-19T04:32:46.550Z,24.30
2018-12-19T04:35:27.681Z,24.98
2018-12-19T04:37:56.642Z,21.42
2018-12-19T04:40:37.672Z,24.00
2018-12-19T04:43:06.624Z,22.95
2018-12-19T04:45:47.737Z,24.77
2018-12-19T04:48:16.703Z,23.20
2018-12-19T04:50:57.733Z,22.50
2018-12-19T04:53:26.690Z,22.50
2018-12-19T04:56:07.752Z,21.50
2018-12-19T04:58:37.918Z,22.67
2018-12-19T05:01:19.098Z,24.10
2018-12-19T05:03:48.008Z,21.25
2018-12-19T05:06:29.129Z,23.18
2018-12-19T05:08:58.122Z,21.57
2018-12-19T05:11:39.374Z,21.12
2018-12-19T05:14:08.263Z,20.40
2018-12-19T05:16:54.637Z,22.30
2018-12-19T05:19:23.629Z,23.10
2018-12-19T05:22:04.648Z,24.23
2018-12-19T05:24:33.609Z,20.23
2018-12-19T05:27:14.639Z,22.05
2018-12-19T05:29:43.484Z,23.65
2018-12-19T05:32:24.490Z,21.70
2018-12-19T05:34:53.343Z,22.42
2018-12-19T05:37:34.346Z,21.87
2018-12-19T05:40:04.922Z,23.80
2018-12-19T05:42:45.920Z,21.95
2018-12-19T05:45:14.993Z,22.17
2018-12-19T05:47:56.001Z,22.60
2018-12-19T05:50:27.782Z,24.05
2018-12-19T05:53:08.794Z,21.20
2018-12-19T05:55:37.660Z,21.62
2018-12-19T05:58:18.728Z,22.85
2018-12-19T06:00:47.607Z,20.85
2018-12-19T06:03:28.638Z,20.30
2018-12-19T06:05:57.496Z,23.25
2018-12-19T06:08:38.502Z,21.80
2018-12-19T06:11:07.450Z,21.65
2018-12-19T06:13:48.469Z,24.82
2018-12-19T06:16:17.470Z,25.57
2018-12-19T06:18:58.674Z,22.73
2018-12-19T06:21:28.125Z,23.62
2018-12-19T06:24:09.190Z,24.50
2018-12-19T06:26:38.042Z,24.47
2018-12-19T06:29:19.058Z,25.35
2018-12-19T06:31:48.026Z,26.42
2018-12-19T06:34:29.111Z,25.12
2018-12-19T06:36:58.118Z,26.45
2018-12-19T06:39:39.587Z,26.45
2018-12-19T06:42:08.659Z,25.15
2018-12-19T06:44:49.742Z,25.70
2018-12-19T06:47:18.611Z,23.83
2018-12-19T06:49:59.742Z,25.97
2018-12-19T06:52:28.932Z,25.10
2018-12-19T06:55:10.013Z,26.75
2018-12-19T06:57:38.859Z,25.43
2018-12-19T07:00:27.950Z,24.60
2018-12-19T07:02:56.921Z,26.52
2018-12-19T07:05:37.937Z,26.45
2018-12-19T07:08:06.786Z,26.77
2018-12-19T07:10:48.358Z,26.23
2018-12-19T07:13:17.261Z,26.55
2018-12-19T07:15:58.289Z,26.05
2018-12-19T07:18:27.261Z,27.62
2018-12-19T07:21:08.396Z,25.43
2018-12-19T07:23:37.958Z,26.25
2018-12-19T07:26:20.230Z,27.77
2018-12-19T07:28:49.342Z,26.15
2018-12-19T07:31:30.410Z,28.42
2018-12-19T07:34:00.041Z,26.12
2018-12-19T07:36:42.133Z,27.10
2018-12-19T07:39:10.998Z,27.82
2018-12-19T07:41:52.058Z,29.72
2018-12-19T07:44:20.904Z,28.85
2018-12-19T07:47:02.155Z,27.52
2018-12-19T07:49:32.229Z,27.80
2018-12-19T07:52:13.252Z,29.45
2018-12-19T07:54:42.314Z,31.25
2018-12-19T07:57:23.324Z,30.82
2018-12-19T07:59:52.287Z,28.90
2018-12-19T08:02:44.658Z,31.25
2018-12-19T08:05:13.990Z,31.02
2018-12-19T08:07:55.063Z,32.40
2018-12-19T08:10:24.493Z,33.53
2018-12-19T08:13:05.632Z,30.48
2018-12-19T08:15:34.543Z,33.42
2018-12-19T08:18:15.973Z,31.65
2018-12-19T08:20:44.941Z,36.55
2018-12-19T08:23:26.027Z,34.90
2018-12-19T08:25:56.202Z,35.10
2018-12-19T08:28:38.189Z,33.15
2018-12-19T08:31:07.255Z,33.20
2018-12-19T08:33:48.369Z,33.98
2018-12-19T08:36:17.222Z,34.48
2018-12-19T08:38:58.217Z,33.48
2018-12-19T08:41:27.363Z,33.92
2018-12-19T08:44:08.745Z,36.40
2018-12-19T08:46:37.893Z,36.42
2018-12-19T08:49:18.925Z,35.95
2018-12-19T08:51:47.781Z,35.05
2018-12-19T08:54:28.781Z,38.85
2018-12-19T08:56:57.627Z,35.85
2018-12-19T08:59:38.617Z,36.60
2018-12-19T09:02:07.481Z,38.28
2018-12-19T09:04:48.664Z,38.23
2018-12-19T09:07:17.520Z,38.83
2018-12-19T09:09:58.519Z,38.33
2018-12-19T09:12:27.506Z,36.75
2018-12-19T09:15:08.730Z,38.23
2018-12-19T09:17:37.585Z,38.08
2018-12-19T09:20:18.909Z,39.27
2018-12-19T09:22:47.758Z,36.38
2018-12-19T09:25:28.821Z,36.30
2018-12-19T09:28:00.875Z,37.33
2018-12-19T09:30:42.014Z,38.50
2018-12-19T09:33:10.870Z,39.53
2018-12-19T09:35:51.966Z,36.68
2018-12-19T09:38:20.832Z,43.38
2018-12-19T09:41:01.843Z,38.10
2018-12-19T09:43:30.709Z,38.38
2018-12-19T09:46:11.793Z,40.17
2018-12-19T09:48:40.769Z,38.60
2018-12-19T09:51:21.808Z,36.55
2018-12-19T09:53:50.879Z,41.20
2018-12-19T09:56:31.918Z,39.08
2018-12-19T09:59:00.893Z,39.25
2018-12-19T10:01:42.070Z,37.45
2018-12-19T10:04:11.622Z,39.60
2018-12-19T10:06:52.693Z,41.53
2018-12-19T10:09:21.549Z,39.98
2018-12-19T10:12:02.553Z,38.05
2018-12-19T10:14:31.472Z,33.18
2018-12-19T10:17:12.488Z,36.00
2018-12-19T10:19:41.447Z,38.55
2018-12-19T10:22:28.095Z,37.03
2018-12-19T10:25:03.196Z,34.90
2018-12-19T10:27:44.646Z,34.33
2018-12-19T10:30:14.428Z,36.90
2018-12-19T10:32:56.641Z,37.58
2018-12-19T10:35:27.401Z,37.35
2018-12-19T10:38:08.442Z,34.30
2018-12-19T10:40:37.392Z,34.80
2018-12-19T10:43:18.393Z,34.40
2018-12-19T10:45:47.353Z,34.05
2018-12-19T10:48:28.394Z,32.17
2018-12-19T10:50:57.453Z,33.25
2018-12-19T10:53:38.462Z,35.63
2018-12-19T10:56:07.314Z,33.70
2018-12-19T10:58:48.328Z,33.60
2018-12-19T11:01:17.192Z,31.23
2018-12-19T11:03:58.222Z,33.80
2018-12-19T11:06:27.093Z,31.65
2018-12-19T11:09:08.179Z,33.58
2018-12-19T11:11:37.046Z,32.13
2018-12-19T11:14:18.126Z,33.98
2018-12-19T11:16:48.894Z,32.50
2018-12-19T11:19:29.982Z,32.70
2018-12-19T11:21:59.337Z,34.60
2018-12-19T11:24:40.418Z,34.00
2018-12-19T11:27:10.570Z,34.90
2018-12-19T11:29:51.602Z,33.48
2018-12-19T11:32:20.665Z,32.58
2018-12-19T11:35:01.789Z,32.38
2018-12-19T11:37:30.753Z,31.90
2018-12-19T11:40:11.803Z,30.12
2018-12-19T11:42:40.700Z,31.37
2018-12-19T11:45:21.801Z,32.33
2018-12-19T11:47:50.716Z,28.98
2018-12-19T11:50:31.836Z,29.07
2018-12-19T11:53:01.253Z,27.65
2018-12-19T11:55:49.961Z,27.35
2018-12-19T11:58:18.846Z,27.73
2018-12-19T12:01:00.259Z,25.80
2018-12-19T12:03:30.142Z,28.47
2018-12-19T12:06:11.366Z,28.23
2018-12-19T12:08:40.365Z,28.30
2018-12-19T12:11:22.034Z,29.98
2018-12-19T12:13:51.045Z,30.80
2018-12-19T12:16:32.189Z,29.70
2018-12-19T12:19:01.537Z,28.10
2018-12-19T12:21:43.070Z,27.80
2018-12-19T12:24:12.314Z,26.05
2018-12-19T12:26:53.826Z,27.00
2018-12-19T12:29:22.710Z,24.20
2018-12-19T12:32:04.067Z,26.20
2018-12-19T12:34:34.837Z,26.95
2018-12-19T12:37:16.654Z,28.07
2018-12-19T12:39:47.892Z,27.27
2018-12-19T12:42:29.002Z,27.15
2018-12-19T12:44:58.317Z,28.52
2018-12-19T12:47:40.146Z,25.00
2018-12-19T12:50:09.414Z,22.87
2018-12-19T12:52:50.560Z,24.30
2018-12-19T12:55:21.898Z,22.77
2018-12-19T12:58:03.570Z,23.35
2018-12-19T13:00:33.230Z,23.20
2018-12-19T13:03:14.337Z,24.40
2018-12-19T13:05:43.415Z,20.35
2018-12-19T13:08:24.459Z,20.80
2018-12-19T13:10:53.567Z,23.83
2018-12-19T13:13:34.590Z,20.62
2018-12-19T13:16:03.570Z,22.15
2018-12-19T13:18:44.856Z,23.87
2018-12-19T13:21:13.777Z,23.30
2018-12-19T13:23:54.929Z,21.55
2018-12-19T13:26:24.810Z,21.40
2018-12-19T13:29:05.833Z,22.52
2018-12-19T13:31:34.801Z,24.00
2018-12-19T13:34:16.004Z,20.02
2018-12-19T13:36:44.870Z,20.12
2018-12-19T13:39:26.439Z,20.75
2018-12-19T13:41:55.305Z,21.97
2018-12-19T13:44:36.882Z,21.50
2018-12-19T13:47:06.094Z,19.40
2018-12-19T13:49:47.283Z,19.23
2018-12-19T13:52:16.165Z,18.50
2018-12-19T13:54:57.244Z,18.23
2018-12-19T13:57:26.613Z,18.98
2018-12-19T14:00:12.612Z,18.67
2018-12-19T14:02:41.833Z,18.52
2018-12-19T14:05:22.894Z,20.12
2018-12-19T14:07:57.394Z,20.15
2018-12-19T14:10:38.406Z,19.20
2018-12-19T14:13:07.410Z,18.90
2018-12-19T14:15:48.643Z,22.07
2018-12-19T14:18:17.496Z,22.52
2018-12-19T14:20:58.803Z,21.75
2018-12-19T14:23:27.971Z,21.95
2018-12-19T14:26:09.259Z,19.62
2018-12-19T14:28:40.667Z,21.10
2018-12-19T14:31:22.084Z,19.87
2018-12-19T14:33:50.989Z,20.23
2018-12-19T14:36:32.069Z,22.40
2018-12-19T14:39:00.958Z,22.00
2018-12-19T14:41:41.972Z,25.40
2018-12-19T14:44:23.201Z,20.80
2018-12-19T14:46:52.087Z,23.85
2018-12-19T14:49:33.153Z,24.15
2018-12-19T14:52:02.080Z,24.75
2018-12-19T14:54:43.267Z,24.50
2018-12-19T14:57:12.450Z,25.95
2018-12-19T14:59:53.451Z,25.90
2018-12-19T15:02:22.538Z,22.75
2018-12-19T15:05:04.222Z,25.05
2018-12-19T15:07:33.195Z,25.40
2018-12-19T15:10:16.330Z,25.15
2018-12-19T15:12:45.218Z,25.30
2018-12-19T15:15:26.337Z,24.92
2018-12-19T15:17:55.263Z,23.57
2018-12-19T15:20:36.295Z,24.55
2018-12-19T15:23:05.376Z,24.98
2018-12-19T15:25:46.450Z,27.95
2018-12-19T15:28:15.318Z,28.85
2018-12-19T15:30:57.419Z,26.33
2018-12-19T15:33:28.193Z,26.50
2018-12-19T15:36:09.833Z,24.67
2018-12-19T15:38:38.709Z,26.80
2018-12-19T15:41:19.710Z,26.25
2018-12-19T15:43:48.674Z,27.70
2018-12-19T15:46:29.706Z,26.95
2018-12-19T15:48:58.758Z,29.07
2018-12-19T15:51:39.793Z,28.35
2018-12-19T15:54:08.844Z,28.20
2018-12-19T15:56:49.906Z,25.52
2018-12-19T15:59:27.263Z,27.30
2018-12-19T16:02:09.165Z,30.70
2018-12-19T16:04:38.928Z,30.12
2018-12-19T16:07:19.939Z,32.45
2018-12-19T16:09:48.826Z,30.37
2018-12-19T16:12:30.038Z,32.05
2018-12-19T16:14:58.934Z,29.23
2018-12-19T16:17:39.959Z,30.97
2018-12-19T16:20:09.490Z,28.65
2018-12-19T16:22:51.249Z,27.80
2018-12-19T16:25:20.149Z,29.25
2018-12-19T16:28:01.167Z,28.17
2018-12-19T16:30:30.038Z,28.77
2018-12-19T16:33:11.074Z,27.75
2018-12-19T16:35:40.029Z,28.95
2018-12-19T16:38:21.091Z,26.60
2018-12-19T16:40:49.982Z,25.35
2018-12-19T16:43:31.102Z,29.37
2018-12-19T16:46:02.005Z,30.48
2018-12-19T16:48:43.074Z,28.52
2018-12-19T16:51:12.010Z,27.37
2018-12-19T16:53:53.013Z,32.63
2018-12-19T16:56:22.027Z,36.60
2018-12-19T16:59:03.043Z,36.68
2018-12-19T17:01:32.806Z,37.75
2018-12-19T17:04:13.811Z,36.15
2018-12-19T17:06:42.686Z,36.73
2018-12-19T17:09:23.738Z,33.18
2018-12-19T17:11:52.650Z,32.40
2018-12-19T17:14:33.638Z,30.88
2018-12-19T17:17:02.524Z,31.35
2018-12-19T17:19:43.527Z,28.25
2018-12-19T17:22:12.626Z,29.70
2018-12-19T17:24:59.657Z,28.57
2018-12-19T17:27:28.625Z,26.97
2018-12-19T17:29:57.493Z,27.65
2018-12-19T17:32:38.658Z,26.30
2018-12-19T17:35:08.310Z,26.48
2018-12-19T17:37:49.386Z,26.42
2018-12-19T17:40:18.227Z,27.37
2018-12-19T17:42:59.615Z,26.97
2018-12-19T17:45:30.854Z,25.50
2018-12-19T17:48:12.024Z,24.23
2018-12-19T17:50:42.766Z,25.52
2018-12-19T17:53:24.074Z,25.08
2018-12-19T17:55:53.495Z,24.65
2018-12-19T17:58:34.546Z,24.82
2018-12-19T18:01:03.551Z,24.50
2018-12-19T18:03:44.586Z,23.90
2018-12-19T18:06:13.561Z,22.48
2018-12-19T18:08:54.592Z,23.55
2018-12-19T18:11:23.437Z,25.37
2018-12-19T18:14:04.602Z,23.00
2018-12-19T18:16:33.563Z,21.70
2018-12-19T18:19:14.596Z,23.62
2018-12-19T18:21:45.433Z,21.93
2018-12-19T18:24:26.478Z,24.00
2018-12-19T18:26:55.347Z,22.07
2018-12-19T18:29:36.809Z,25.10
2018-12-19T18:32:05.738Z,23.62
2018-12-19T18:34:46.838Z,22.85
2018-12-19T18:37:15.701Z,24.37
2018-12-19T18:39:56.737Z,24.47
2018-12-19T18:42:26.035Z,24.85
2018-12-19T18:45:11.870Z,22.35
2018-12-19T18:47:51.218Z,24.80
2018-12-19T18:50:20.538Z,23.12
2018-12-19T18:53:01.619Z,25.48
2018-12-19T18:55:32.402Z,24.45
2018-12-19T18:58:13.427Z,23.80
2018-12-19T19:03:25.042Z,22.95
2018-12-19T19:05:54.498Z,24.60
2018-12-19T19:08:35.724Z,24.23
2018-12-19T19:11:06.497Z,24.85
2018-12-19T19:13:48.230Z,27.85
2018-12-19T19:16:17.833Z,25.00
2018-12-19T19:18:58.837Z,26.85
2018-12-19T19:21:27.866Z,26.42
2018-12-19T19:24:09.098Z,27.52
2018-12-19T19:26:38.080Z,25.20
2018-12-19T19:29:19.782Z,26.52
2018-12-19T19:31:48.926Z,27.98
2018-12-19T19:34:30.298Z,27.60
2018-12-19T19:36:59.549Z,26.20
2018-12-19T19:39:41.192Z,25.40
2018-12-19T19:42:10.129Z,25.90
2018-12-19T19:44:51.286Z,27.62
2018-12-19T19:47:22.622Z,25.00
2018-12-19T19:50:04.074Z,25.72
2018-12-19T19:52:33.474Z,26.60
2018-12-19T19:55:14.653Z,26.30
2018-12-19T19:57:44.158Z,26.05
2018-12-19T20:00:31.616Z,26.57
2018-12-19T20:03:01.818Z,29.12
2018-12-19T20:05:44.150Z,28.52
2018-12-19T20:08:13.360Z,26.82
2018-12-19T20:10:54.970Z,28.87
2018-12-19T20:13:24.280Z,28.70
2018-12-19T20:16:05.358Z,29.45
2018-12-19T20:18:35.658Z,28.02
2018-12-19T20:21:17.189Z,27.25
2018-12-19T20:23:46.530Z,28.23
2018-12-19T20:26:28.526Z,26.87
2018-12-19T20:28:57.494Z,28.05
2018-12-19T20:31:38.497Z,29.30
2018-12-19T20:34:08.471Z,29.25
2018-12-19T20:36:50.318Z,28.25
2018-12-19T20:39:21.642Z,29.27
2018-12-19T20:42:03.273Z,27.65
2018-12-19T20:44:32.174Z,25.72
2018-12-19T20:47:13.216Z,28.55
2018-12-19T20:49:44.017Z,28.87
2018-12-19T20:52:25.011Z,28.92
2018-12-19T20:54:53.913Z,25.92
2018-12-19T21:00:29.957Z,28.92
2018-12-19T21:02:58.859Z,26.27
2018-12-19T21:05:39.882Z,27.52
2018-12-19T21:08:08.859Z,26.07
2018-12-19T21:10:49.932Z,26.33
2018-12-19T21:13:18.841Z,26.93
2018-12-19T21:15:59.971Z,24.45
2018-12-19T21:18:34.742Z,24.57
2018-12-19T21:21:20.158Z,25.15
2018-12-19T21:26:30.051Z,24.85
2018-12-19T21:28:59.818Z,24.25
2018-12-19T21:31:40.817Z,23.87
2018-12-19T21:34:09.817Z,24.52
2018-12-19T21:36:50.907Z,24.25
2018-12-19T21:39:20.275Z,24.70
2018-12-19T21:42:01.330Z,24.18
2018-12-19T21:44:30.397Z,25.80
2018-12-19T21:47:11.444Z,24.35
2018-12-19T21:49:40.373Z,23.95
2018-12-19T21:52:21.526Z,23.62
2018-12-19T21:54:50.721Z,26.87
2018-12-19T21:57:31.822Z,24.87
2018-12-19T22:00:00.927Z,25.23
2018-12-19T22:02:46.937Z,23.80
2018-12-19T22:05:15.882Z,27.48
2018-12-19T22:07:56.911Z,26.97
2018-12-19T22:10:25.902Z,24.72
2018-12-19T22:13:06.917Z,24.30
2018-12-19T22:15:35.960Z,26.00
2018-12-19T22:18:52.431Z,25.65
2018-12-19T22:21:21.471Z,25.35
2018-12-19T22:24:02.564Z,25.10
2018-12-19T22:29:11.670Z,26.52
2018-12-19T22:31:40.685Z,24.55
2018-12-19T22:34:21.714Z,22.75
2018-12-19T22:36:50.586Z,25.05
2018-12-19T22:39:31.628Z,25.55
2018-12-19T22:42:00.512Z,24.95
2018-12-19T22:44:41.728Z,24.32
2018-12-19T22:47:10.705Z,23.73
2018-12-19T22:49:51.742Z,24.92
2018-12-19T22:52:20.858Z,24.12
2018-12-19T22:55:01.927Z,25.55
2018-12-19T22:57:32.457Z,24.98
2018-12-19T23:00:17.421Z,23.87
2018-12-19T23:02:52.076Z,22.25
2018-12-19T23:05:42.958Z,27.13
2018-12-19T23:08:11.840Z,24.85
2018-12-19T23:10:52.859Z,22.93
2018-12-19T23:13:21.746Z,25.72
2018-12-19T23:16:03.074Z,22.55
2018-12-19T23:18:32.126Z,25.97
2018-12-19T23:21:13.414Z,25.70
2018-12-19T23:23:43.526Z,22.98
2018-12-19T23:26:24.832Z,22.20
2018-12-19T23:28:58.260Z,25.85
2018-12-19T23:31:39.402Z,24.77
2018-12-19T23:34:08.259Z,26.02
2018-12-19T23:36:49.325Z,27.48
2018-12-19T23:39:18.338Z,26.12
2018-12-19T23:41:59.354Z,25.72
2018-12-19T23:44:31.919Z,26.62
2018-12-19T23:47:13.105Z,25.02
2018-12-19T23:49:42.097Z,25.60
2018-12-19T23:52:23.356Z,27.52
2018-12-19T23:54:52.316Z,25.15
2018-12-19T23:57:33.772Z,25.00
